Downstream station:
SHEF ID: SSBO2 Sab Bois Creek S of Stigler Ok
STATION TYPE:
Regulating: Stage = 26.00, Flow = 4237
PRECIP STAGE RIV-FLOW VOLTAGE BAT-LOAD
in ft cfs volt volt
Ccp-Rev Ccp-Rev Ccp-Rev Ccp-Rev Ccp-Rev
(US/Central)
07/04 00:00 0.00 8.86 3 12.93 12.71
07/04 01:00 0.00 8.87 3 12.91 12.70
07/04 02:00 0.00 8.86 3 12.90 12.69
07/04 03:00 0.00 8.86 3 12.88 12.67
07/04 04:00 0.00 8.87 3 12.87 12.65
07/04 05:00 0.00 8.87 3 12.86 12.65
07/04 06:00 0.00 8.87 3 12.85 12.63
07/04 07:00 0.00 8.86 3 12.85 12.62
07/04 08:00 0.00 8.86 3 12.97 12.74
07/04 09:00 0.00 8.86 3 13.28 13.03
07/04 10:00 0.00 8.86 3 13.47 13.20
07/04 11:00 0.00 8.85 3 13.61 13.30
07/04 12:00 0.00 8.84 3 14.32 13.25
07/04 13:00 0.00 8.84 3 13.57 13.13
07/04 14:00 0.00 8.84 3 13.64 13.14
07/04 15:00 0.00 8.84 3 13.90 13.08
07/04 16:00 0.00 8.84 3 14.27 13.12
07/04 17:00 0.00 8.84 3 13.60 13.10
07/04 18:00 0.00 8.84 3 13.60 13.10
07/04 19:00 0.00 8.84 3 13.58 13.09
07/04 20:00 0.00 8.85 3 13.87 13.11
07/04 21:00 0.00 8.85 3 12.99 12.77
07/04 22:00 0.00 8.85 3 12.96 12.73
07/04 23:00 ---- ---- ---- ---- ----